sensor_id;sensor_type;location;lat;lon;timestamp;pressure;altitude;pressure_sealevel;temperature
68027;BMP180;54819;48.030;14.710;2023-05-07T00:01:28;97541.40;;;15.60
68027;BMP180;54819;48.030;14.710;2023-05-07T00:03:54;97544.80;;;15.60
68027;BMP180;54819;48.030;14.710;2023-05-07T00:06:21;97543.60;;;15.60
68027;BMP180;54819;48.030;14.710;2023-05-07T00:08:49;97546.40;;;15.60
68027;BMP180;54819;48.030;14.710;2023-05-07T00:11:15;97545.80;;;15.60
68027;BMP180;54819;48.030;14.710;2023-05-07T00:13:42;97545.20;;;15.60
68027;BMP180;54819;48.030;14.710;2023-05-07T00:16:08;97543.60;;;15.60
68027;BMP180;54819;48.030;14.710;2023-05-07T00:18:35;97546.60;;;15.58
68027;BMP180;54819;48.030;14.710;2023-05-07T00:21:02;97546.40;;;15.50
68027;BMP180;54819;48.030;14.710;2023-05-07T00:23:29;97548.60;;;15.50
68027;BMP180;54819;48.030;14.710;2023-05-07T00:25:56;97550.60;;;15.50
68027;BMP180;54819;48.030;14.710;2023-05-07T00:28:23;97548.20;;;15.50
68027;BMP180;54819;48.030;14.710;2023-05-07T00:30:49;97549.00;;;15.50
68027;BMP180;54819;48.030;14.710;2023-05-07T00:33:16;97547.80;;;15.50
68027;BMP180;54819;48.030;14.710;2023-05-07T00:35:42;97550.00;;;15.50
68027;BMP180;54819;48.030;14.710;2023-05-07T00:38:09;97548.80;;;15.40
68027;BMP180;54819;48.030;14.710;2023-05-07T00:40:36;97545.20;;;15.40
68027;BMP180;54819;48.030;14.710;2023-05-07T00:43:03;97543.60;;;15.30
68027;BMP180;54819;48.030;14.710;2023-05-07T00:45:30;97549.20;;;15.30
68027;BMP180;54819;48.030;14.710;2023-05-07T00:48:02;97542.80;;;15.20
68027;BMP180;54819;48.030;14.710;2023-05-07T00:50:29;97549.20;;;15.20
68027;BMP180;54819;48.030;14.710;2023-05-07T00:52:57;97548.20;;;15.20
68027;BMP180;54819;48.030;14.710;2023-05-07T00:55:24;97545.40;;;15.14
68027;BMP180;54819;48.030;14.710;2023-05-07T00:57:51;97549.40;;;15.10
68027;BMP180;54819;48.030;14.710;2023-05-07T01:00:18;97547.60;;;15.10
68027;BMP180;54819;48.030;14.710;2023-05-07T01:02:46;97551.80;;;15.00
68027;BMP180;54819;48.030;14.710;2023-05-07T01:05:17;97556.40;;;15.00
68027;BMP180;54819;48.030;14.710;2023-05-07T01:07:46;97554.00;;;15.00
68027;BMP180;54819;48.030;14.710;2023-05-07T01:10:14;97554.20;;;15.04
68027;BMP180;54819;48.030;14.710;2023-05-07T01:12:42;97555.40;;;15.10
68027;BMP180;54819;48.030;14.710;2023-05-07T01:15:10;97562.00;;;15.10
68027;BMP180;54819;48.030;14.710;2023-05-07T01:17:39;97566.00;;;15.10
68027;BMP180;54819;48.030;14.710;2023-05-07T01:20:11;97564.40;;;15.10
68027;BMP180;54819;48.030;14.710;2023-05-07T01:22:40;97563.20;;;15.12
68027;BMP180;54819;48.030;14.710;2023-05-07T01:25:08;97562.00;;;15.16
68027;BMP180;54819;48.030;14.710;2023-05-07T01:27:36;97567.80;;;15.16
68027;BMP180;54819;48.030;14.710;2023-05-07T01:30:05;97573.40;;;15.18
68027;BMP180;54819;48.030;14.710;2023-05-07T01:32:43;97575.20;;;15.10
68027;BMP180;54819;48.030;14.710;2023-05-07T01:35:19;97581.20;;;15.10
68027;BMP180;54819;48.030;14.710;2023-05-07T01:37:48;97578.40;;;15.10
68027;BMP180;54819;48.030;14.710;2023-05-07T01:40:16;97581.00;;;15.10
68027;BMP180;54819;48.030;14.710;2023-05-07T01:42:44;97577.60;;;15.10
68027;BMP180;54819;48.030;14.710;2023-05-07T01:45:11;97579.20;;;15.10
68027;BMP180;54819;48.030;14.710;2023-05-07T01:47:39;97572.20;;;15.10
68027;BMP180;54819;48.030;14.710;2023-05-07T01:50:07;97569.60;;;15.10
68027;BMP180;54819;48.030;14.710;2023-05-07T01:52:40;97568.40;;;15.10
68027;BMP180;54819;48.030;14.710;2023-05-07T01:55:07;97569.40;;;15.00
68027;BMP180;54819;48.030;14.710;2023-05-07T01:57:35;97572.60;;;14.98
68027;BMP180;54819;48.030;14.710;2023-05-07T02:00:02;97572.00;;;14.90
68027;BMP180;54819;48.030;14.710;2023-05-07T02:02:41;97568.40;;;14.90
68027;BMP180;54819;48.030;14.710;2023-05-07T02:05:12;97570.80;;;14.90
68027;BMP180;54819;48.030;14.710;2023-05-07T02:07:39;97562.80;;;14.80
68027;BMP180;54819;48.030;14.710;2023-05-07T02:10:07;97560.00;;;14.80
68027;BMP180;54819;48.030;14.710;2023-05-07T02:12:34;97559.60;;;14.70
68027;BMP180;54819;48.030;14.710;2023-05-07T02:15:02;97568.00;;;14.70
68027;BMP180;54819;48.030;14.710;2023-05-07T02:17:29;97566.60;;;14.60
68027;BMP180;54819;48.030;14.710;2023-05-07T02:19:58;97566.00;;;14.60
68027;BMP180;54819;48.030;14.710;2023-05-07T02:22:26;97558.00;;;14.58
68027;BMP180;54819;48.030;14.710;2023-05-07T02:24:52;97564.20;;;14.50
68027;BMP180;54819;48.030;14.710;2023-05-07T02:27:19;97565.80;;;14.50
68027;BMP180;54819;48.030;14.710;2023-05-07T02:29:46;97564.80;;;14.50
68027;BMP180;54819;48.030;14.710;2023-05-07T02:32:12;97565.40;;;14.40
68027;BMP180;54819;48.030;14.710;2023-05-07T02:34:39;97562.80;;;14.40
68027;BMP180;54819;48.030;14.710;2023-05-07T02:37:06;97563.80;;;14.40
68027;BMP180;54819;48.030;14.710;2023-05-07T02:39:32;97563.60;;;14.40
68027;BMP180;54819;48.030;14.710;2023-05-07T02:41:59;97563.00;;;14.38
68027;BMP180;54819;48.030;14.710;2023-05-07T02:44:26;97560.20;;;14.30
68027;BMP180;54819;48.030;14.710;2023-05-07T02:46:53;97562.00;;;14.30
68027;BMP180;54819;48.030;14.710;2023-05-07T02:49:19;97563.80;;;14.30
68027;BMP180;54819;48.030;14.710;2023-05-07T02:51:46;97562.40;;;14.20
68027;BMP180;54819;48.030;14.710;2023-05-07T02:54:17;97564.60;;;14.10
68027;BMP180;54819;48.030;14.710;2023-05-07T02:56:44;97571.40;;;14.10
68027;BMP180;54819;48.030;14.710;2023-05-07T02:59:11;97573.40;;;14.10
68027;BMP180;54819;48.030;14.710;2023-05-07T03:01:39;97571.80;;;14.00
68027;BMP180;54819;48.030;14.710;2023-05-07T03:04:07;97574.20;;;14.00
68027;BMP180;54819;48.030;14.710;2023-05-07T03:06:34;97571.40;;;13.90
68027;BMP180;54819;48.030;14.710;2023-05-07T03:09:01;97567.80;;;13.90
68027;BMP180;54819;48.030;14.710;2023-05-07T03:11:28;97565.40;;;13.90
68027;BMP180;54819;48.030;14.710;2023-05-07T03:13:55;97575.00;;;13.90
68027;BMP180;54819;48.030;14.710;2023-05-07T03:16:22;97577.60;;;13.80
68027;BMP180;54819;48.030;14.710;2023-05-07T03:18:48;97574.80;;;13.80
68027;BMP180;54819;48.030;14.710;2023-05-07T03:21:15;97573.80;;;13.80
68027;BMP180;54819;48.030;14.710;2023-05-07T03:23:42;97578.40;;;13.70
68027;BMP180;54819;48.030;14.710;2023-05-07T03:26:08;97579.80;;;13.70
68027;BMP180;54819;48.030;14.710;2023-05-07T03:28:37;97581.00;;;13.70
68027;BMP180;54819;48.030;14.710;2023-05-07T03:31:05;97583.00;;;13.70
68027;BMP180;54819;48.030;14.710;2023-05-07T03:33:33;97586.00;;;13.70
68027;BMP180;54819;48.030;14.710;2023-05-07T03:36:01;97589.60;;;13.70
68027;BMP180;54819;48.030;14.710;2023-05-07T03:38:28;97588.40;;;13.70
68027;BMP180;54819;48.030;14.710;2023-05-07T03:40:55;97588.80;;;13.66
68027;BMP180;54819;48.030;14.710;2023-05-07T03:43:21;97594.80;;;13.70
68027;BMP180;54819;48.030;14.710;2023-05-07T03:45:53;97596.20;;;13.66
68027;BMP180;54819;48.030;14.710;2023-05-07T03:48:23;97600.00;;;13.62
68027;BMP180;54819;48.030;14.710;2023-05-07T03:50:52;97597.00;;;13.70
68027;BMP180;54819;48.030;14.710;2023-05-07T03:53:19;97598.60;;;13.70
68027;BMP180;54819;48.030;14.710;2023-05-07T03:55:45;97599.20;;;13.70
68027;BMP180;54819;48.030;14.710;2023-05-07T03:58:12;97604.60;;;13.70
68027;BMP180;54819;48.030;14.710;2023-05-07T04:00:39;97606.60;;;13.74
68027;BMP180;54819;48.030;14.710;2023-05-07T04:03:19;97610.20;;;13.80
68027;BMP180;54819;48.030;14.710;2023-05-07T04:05:46;97609.80;;;13.80
68027;BMP180;54819;48.030;14.710;2023-05-07T04:08:13;97614.60;;;13.80
68027;BMP180;54819;48.030;14.710;2023-05-07T04:10:44;97610.00;;;13.80
68027;BMP180;54819;48.030;14.710;2023-05-07T04:13:12;97612.20;;;13.80
68027;BMP180;54819;48.030;14.710;2023-05-07T04:15:40;97620.00;;;13.90
68027;BMP180;54819;48.030;14.710;2023-05-07T04:18:08;97624.00;;;13.90
68027;BMP180;54819;48.030;14.710;2023-05-07T04:20:35;97623.20;;;13.90
68027;BMP180;54819;48.030;14.710;2023-05-07T04:23:04;97617.40;;;14.00
68027;BMP180;54819;48.030;14.710;2023-05-07T04:25:31;97616.80;;;14.00
68027;BMP180;54819;48.030;14.710;2023-05-07T04:28:04;97618.20;;;14.10
68027;BMP180;54819;48.030;14.710;2023-05-07T04:30:31;97618.40;;;14.10
68027;BMP180;54819;48.030;14.710;2023-05-07T04:32:58;97622.80;;;14.16
68027;BMP180;54819;48.030;14.710;2023-05-07T04:35:26;97624.80;;;14.20
68027;BMP180;54819;48.030;14.710;2023-05-07T04:37:53;97625.80;;;14.30
68027;BMP180;54819;48.030;14.710;2023-05-07T04:40:19;97622.80;;;14.30
68027;BMP180;54819;48.030;14.710;2023-05-07T04:42:46;97626.00;;;14.40
68027;BMP180;54819;48.030;14.710;2023-05-07T04:45:13;97629.20;;;14.40
68027;BMP180;54819;48.030;14.710;2023-05-07T04:47:41;97627.20;;;14.48
68027;BMP180;54819;48.030;14.710;2023-05-07T04:50:09;97625.40;;;14.50
68027;BMP180;54819;48.030;14.710;2023-05-07T04:52:36;97624.20;;;14.50
68027;BMP180;54819;48.030;14.710;2023-05-07T04:55:03;97622.80;;;14.50
68027;BMP180;54819;48.030;14.710;2023-05-07T04:57:34;97626.80;;;14.56
68027;BMP180;54819;48.030;14.710;2023-05-07T05:00:01;97628.40;;;14.60
68027;BMP180;54819;48.030;14.710;2023-05-07T05:02:30;97629.40;;;14.62
68027;BMP180;54819;48.030;14.710;2023-05-07T05:04:56;97633.80;;;14.70
68027;BMP180;54819;48.030;14.710;2023-05-07T05:07:23;97633.80;;;14.80
68027;BMP180;54819;48.030;14.710;2023-05-07T05:09:50;97637.20;;;14.80
68027;BMP180;54819;48.030;14.710;2023-05-07T05:12:18;97635.20;;;14.90
68027;BMP180;54819;48.030;14.710;2023-05-07T05:14:44;97633.80;;;15.00
68027;BMP180;54819;48.030;14.710;2023-05-07T05:17:11;97643.20;;;15.10
68027;BMP180;54819;48.030;14.710;2023-05-07T05:19:38;97639.20;;;15.12
68027;BMP180;54819;48.030;14.710;2023-05-07T05:22:04;97639.20;;;15.20
68027;BMP180;54819;48.030;14.710;2023-05-07T05:24:31;97639.20;;;15.30
68027;BMP180;54819;48.030;14.710;2023-05-07T05:26:58;97642.60;;;15.40
68027;BMP180;54819;48.030;14.710;2023-05-07T05:29:28;97646.00;;;15.50
68027;BMP180;54819;48.030;14.710;2023-05-07T05:31:55;97648.80;;;15.60
68027;BMP180;54819;48.030;14.710;2023-05-07T05:34:22;97650.00;;;15.68
68027;BMP180;54819;48.030;14.710;2023-05-07T05:36:49;97649.60;;;15.70
68027;BMP180;54819;48.030;14.710;2023-05-07T05:39:17;97653.80;;;15.80
68027;BMP180;54819;48.030;14.710;2023-05-07T05:41:44;97654.60;;;15.80
68027;BMP180;54819;48.030;14.710;2023-05-07T05:44:11;97654.40;;;15.90
68027;BMP180;54819;48.030;14.710;2023-05-07T05:46:38;97656.20;;;15.90
68027;BMP180;54819;48.030;14.710;2023-05-07T05:49:05;97655.20;;;15.90
68027;BMP180;54819;48.030;14.710;2023-05-07T05:51:31;97656.00;;;15.90
68027;BMP180;54819;48.030;14.710;2023-05-07T05:53:59;97656.80;;;15.90
68027;BMP180;54819;48.030;14.710;2023-05-07T05:56:25;97656.80;;;15.94
68027;BMP180;54819;48.030;14.710;2023-05-07T05:58:52;97659.00;;;16.10
68027;BMP180;54819;48.030;14.710;2023-05-07T06:01:19;97655.60;;;16.20
68027;BMP180;54819;48.030;14.710;2023-05-07T06:03:47;97651.60;;;16.30
68027;BMP180;54819;48.030;14.710;2023-05-07T06:06:14;97653.40;;;16.44
68027;BMP180;54819;48.030;14.710;2023-05-07T06:08:42;97658.60;;;16.60
68027;BMP180;54819;48.030;14.710;2023-05-07T06:11:10;97658.80;;;16.70
68027;BMP180;54819;48.030;14.710;2023-05-07T06:13:37;97658.60;;;16.80
68027;BMP180;54819;48.030;14.710;2023-05-07T06:16:04;97656.60;;;16.90
68027;BMP180;54819;48.030;14.710;2023-05-07T06:18:31;97657.20;;;16.80
68027;BMP180;54819;48.030;14.710;2023-05-07T06:20:58;97656.20;;;16.80
68027;BMP180;54819;48.030;14.710;2023-05-07T06:23:27;97657.80;;;16.80
68027;BMP180;54819;48.030;14.710;2023-05-07T06:25:54;97656.60;;;16.70
68027;BMP180;54819;48.030;14.710;2023-05-07T06:28:24;97653.80;;;16.70
68027;BMP180;54819;48.030;14.710;2023-05-07T06:30:51;97654.80;;;16.70
68027;BMP180;54819;48.030;14.710;2023-05-07T06:33:18;97658.60;;;16.70
68027;BMP180;54819;48.030;14.710;2023-05-07T06:35:46;97661.20;;;16.70
68027;BMP180;54819;48.030;14.710;2023-05-07T06:38:12;97659.00;;;16.74
68027;BMP180;54819;48.030;14.710;2023-05-07T06:40:40;97663.40;;;16.80
68027;BMP180;54819;48.030;14.710;2023-05-07T06:43:06;97657.80;;;16.90
68027;BMP180;54819;48.030;14.710;2023-05-07T06:45:53;97653.20;;;16.98
68027;BMP180;54819;48.030;14.710;2023-05-07T06:48:20;97653.60;;;17.10
68027;BMP180;54819;48.030;14.710;2023-05-07T06:50:58;97652.80;;;17.14
68027;BMP180;54819;48.030;14.710;2023-05-07T06:53:25;97659.40;;;17.20
68027;BMP180;54819;48.030;14.710;2023-05-07T06:55:52;97658.60;;;17.20
68027;BMP180;54819;48.030;14.710;2023-05-07T06:58:19;97656.80;;;17.30
68027;BMP180;54819;48.030;14.710;2023-05-07T07:00:47;97656.60;;;17.40
68027;BMP180;54819;48.030;14.710;2023-05-07T07:03:13;97652.20;;;17.50
68027;BMP180;54819;48.030;14.710;2023-05-07T07:05:41;97655.00;;;17.56
68027;BMP180;54819;48.030;14.710;2023-05-07T07:08:09;97655.60;;;17.60
68027;BMP180;54819;48.030;14.710;2023-05-07T07:10:36;97652.20;;;17.70
68027;BMP180;54819;48.030;14.710;2023-05-07T07:13:03;97654.20;;;17.70
68027;BMP180;54819;48.030;14.710;2023-05-07T07:15:30;97656.00;;;17.72
68027;BMP180;54819;48.030;14.710;2023-05-07T07:17:57;97656.00;;;17.74
68027;BMP180;54819;48.030;14.710;2023-05-07T07:20:24;97661.20;;;17.70
68027;BMP180;54819;48.030;14.710;2023-05-07T07:22:51;97660.20;;;17.72
68027;BMP180;54819;48.030;14.710;2023-05-07T07:25:18;97653.80;;;17.80
68027;BMP180;54819;48.030;14.710;2023-05-07T07:27:44;97657.40;;;17.80
68027;BMP180;54819;48.030;14.710;2023-05-07T07:30:12;97656.00;;;17.80
68027;BMP180;54819;48.030;14.710;2023-05-07T07:32:39;97658.40;;;17.80
68027;BMP180;54819;48.030;14.710;2023-05-07T07:35:07;97660.20;;;17.80
68027;BMP180;54819;48.030;14.710;2023-05-07T07:37:34;97655.20;;;17.92
68027;BMP180;54819;48.030;14.710;2023-05-07T07:40:01;97658.80;;;18.00
68027;BMP180;54819;48.030;14.710;2023-05-07T07:42:28;97659.60;;;18.02
68027;BMP180;54819;48.030;14.710;2023-05-07T07:44:56;97655.80;;;18.06
68027;BMP180;54819;48.030;14.710;2023-05-07T07:47:24;97655.40;;;18.10
68027;BMP180;54819;48.030;14.710;2023-05-07T07:49:51;97653.20;;;18.10
68027;BMP180;54819;48.030;14.710;2023-05-07T07:52:18;97656.80;;;18.20
68027;BMP180;54819;48.030;14.710;2023-05-07T07:54:45;97659.40;;;18.20
68027;BMP180;54819;48.030;14.710;2023-05-07T07:57:12;97665.80;;;18.20
68027;BMP180;54819;48.030;14.710;2023-05-07T07:59:39;97657.60;;;18.20
68027;BMP180;54819;48.030;14.710;2023-05-07T08:02:06;97656.20;;;18.20
68027;BMP180;54819;48.030;14.710;2023-05-07T08:04:34;97656.80;;;18.20
68027;BMP180;54819;48.030;14.710;2023-05-07T08:07:03;97657.40;;;18.20
68027;BMP180;54819;48.030;14.710;2023-05-07T08:09:31;97654.40;;;18.20
68027;BMP180;54819;48.030;14.710;2023-05-07T08:11:59;97659.20;;;18.12
68027;BMP180;54819;48.030;14.710;2023-05-07T08:14:25;97662.60;;;18.20
68027;BMP180;54819;48.030;14.710;2023-05-07T08:16:52;97661.60;;;18.20
68027;BMP180;54819;48.030;14.710;2023-05-07T08:19:19;97662.00;;;18.20
68027;BMP180;54819;48.030;14.710;2023-05-07T08:21:46;97658.80;;;18.20
68027;BMP180;54819;48.030;14.710;2023-05-07T08:24:18;97661.40;;;18.30
68027;BMP180;54819;48.030;14.710;2023-05-07T08:26:45;97668.80;;;18.32
68027;BMP180;54819;48.030;14.710;2023-05-07T08:29:14;97671.40;;;18.40
68027;BMP180;54819;48.030;14.710;2023-05-07T08:31:40;97674.40;;;18.40
68027;BMP180;54819;48.030;14.710;2023-05-07T08:34:08;97680.20;;;18.40
68027;BMP180;54819;48.030;14.710;2023-05-07T08:36:37;97680.20;;;18.42
68027;BMP180;54819;48.030;14.710;2023-05-07T08:39:04;97678.00;;;18.48
68027;BMP180;54819;48.030;14.710;2023-05-07T08:41:32;97685.80;;;18.52
68027;BMP180;54819;48.030;14.710;2023-05-07T08:44:03;97687.00;;;18.60
68027;BMP180;54819;48.030;14.710;2023-05-07T08:46:32;97687.80;;;18.70
68027;BMP180;54819;48.030;14.710;2023-05-07T08:48:59;97681.60;;;18.74
68027;BMP180;54819;48.030;14.710;2023-05-07T08:51:26;97674.80;;;18.80
68027;BMP180;54819;48.030;14.710;2023-05-07T08:53:54;97680.60;;;18.80
68027;BMP180;54819;48.030;14.710;2023-05-07T08:56:24;97680.60;;;18.90
68027;BMP180;54819;48.030;14.710;2023-05-07T08:58:51;97684.40;;;18.90
68027;BMP180;54819;48.030;14.710;2023-05-07T09:01:24;97685.60;;;18.90
68027;BMP180;54819;48.030;14.710;2023-05-07T09:03:53;97679.20;;;18.90
68027;BMP180;54819;48.030;14.710;2023-05-07T09:06:20;97687.20;;;18.90
68027;BMP180;54819;48.030;14.710;2023-05-07T09:08:51;97690.60;;;18.90
68027;BMP180;54819;48.030;14.710;2023-05-07T09:11:25;97690.40;;;18.90
68027;BMP180;54819;48.030;14.710;2023-05-07T09:13:55;97687.00;;;18.90
68027;BMP180;54819;48.030;14.710;2023-05-07T09:16:25;97689.80;;;18.90
68027;BMP180;54819;48.030;14.710;2023-05-07T09:18:53;97686.40;;;19.00
68027;BMP180;54819;48.030;14.710;2023-05-07T09:21:21;97680.60;;;19.00
68027;BMP180;54819;48.030;14.710;2023-05-07T09:23:52;97682.20;;;19.00
68027;BMP180;54819;48.030;14.710;2023-05-07T09:26:24;97682.60;;;19.10
68027;BMP180;54819;48.030;14.710;2023-05-07T09:28:52;97685.80;;;19.10
68027;BMP180;54819;48.030;14.710;2023-05-07T09:31:20;97687.00;;;19.10
68027;BMP180;54819;48.030;14.710;2023-05-07T09:33:50;97691.00;;;19.24
68027;BMP180;54819;48.030;14.710;2023-05-07T09:36:19;97683.40;;;19.30
68027;BMP180;54819;48.030;14.710;2023-05-07T09:38:46;97681.60;;;19.40
68027;BMP180;54819;48.030;14.710;2023-05-07T09:41:13;97682.60;;;19.50
68027;BMP180;54819;48.030;14.710;2023-05-07T09:44:03;97682.00;;;19.70
68027;BMP180;54819;48.030;14.710;2023-05-07T09:46:38;97682.00;;;19.80
68027;BMP180;54819;48.030;14.710;2023-05-07T09:49:23;97680.60;;;19.90
68027;BMP180;54819;48.030;14.710;2023-05-07T09:51:52;97675.40;;;19.90
68027;BMP180;54819;48.030;14.710;2023-05-07T09:54:21;97680.80;;;19.80
68027;BMP180;54819;48.030;14.710;2023-05-07T09:56:52;97677.60;;;19.90
68027;BMP180;54819;48.030;14.710;2023-05-07T09:59:22;97673.20;;;19.90
68027;BMP180;54819;48.030;14.710;2023-05-07T10:01:52;97676.40;;;20.00
68027;BMP180;54819;48.030;14.710;2023-05-07T10:04:20;97678.20;;;20.00
68027;BMP180;54819;48.030;14.710;2023-05-07T10:06:48;97681.40;;;19.90
68027;BMP180;54819;48.030;14.710;2023-05-07T10:09:15;97682.20;;;19.96
68027;BMP180;54819;48.030;14.710;2023-05-07T10:11:43;97680.60;;;19.90
68027;BMP180;54819;48.030;14.710;2023-05-07T10:14:10;97670.00;;;20.00
68027;BMP180;54819;48.030;14.710;2023-05-07T10:16:37;97673.60;;;20.00
68027;BMP180;54819;48.030;14.710;2023-05-07T10:19:09;97676.40;;;20.00
68027;BMP180;54819;48.030;14.710;2023-05-07T10:21:51;97678.40;;;20.10
68027;BMP180;54819;48.030;14.710;2023-05-07T10:24:26;97671.80;;;20.20
68027;BMP180;54819;48.030;14.710;2023-05-07T10:26:55;97681.80;;;20.30
68027;BMP180;54819;48.030;14.710;2023-05-07T10:32:25;97682.00;;;20.40
68027;BMP180;54819;48.030;14.710;2023-05-07T10:35:02;97673.80;;;20.40
68027;BMP180;54819;48.030;14.710;2023-05-07T10:37:30;97669.40;;;20.46
68027;BMP180;54819;48.030;14.710;2023-05-07T10:39:57;97669.40;;;20.50
68027;BMP180;54819;48.030;14.710;2023-05-07T10:42:24;97663.40;;;20.50
68027;BMP180;54819;48.030;14.710;2023-05-07T10:44:52;97665.00;;;20.50
68027;BMP180;54819;48.030;14.710;2023-05-07T10:47:26;97664.80;;;20.60
68027;BMP180;54819;48.030;14.710;2023-05-07T10:52:26;97662.80;;;20.80
68027;BMP180;54819;48.030;14.710;2023-05-07T10:55:20;97658.60;;;20.90
68027;BMP180;54819;48.030;14.710;2023-05-07T10:58:26;97655.40;;;20.90
68027;BMP180;54819;48.030;14.710;2023-05-07T11:01:14;97660.20;;;20.90
68027;BMP180;54819;48.030;14.710;2023-05-07T11:04:16;97654.20;;;21.00
68027;BMP180;54819;48.030;14.710;2023-05-07T11:10:00;97655.80;;;21.00
68027;BMP180;54819;48.030;14.710;2023-05-07T11:12:54;97652.40;;;21.00
68027;BMP180;54819;48.030;14.710;2023-05-07T11:15:40;97646.40;;;21.00
68027;BMP180;54819;48.030;14.710;2023-05-07T11:18:52;97643.20;;;21.00
68027;BMP180;54819;48.030;14.710;2023-05-07T11:21:37;97644.00;;;21.00
68027;BMP180;54819;48.030;14.710;2023-05-07T11:24:23;97641.60;;;21.10
68027;BMP180;54819;48.030;14.710;2023-05-07T11:27:00;97639.40;;;21.10
68027;BMP180;54819;48.030;14.710;2023-05-07T11:29:28;97636.00;;;21.10
68027;BMP180;54819;48.030;14.710;2023-05-07T11:32:00;97633.00;;;21.20
68027;BMP180;54819;48.030;14.710;2023-05-07T11:34:32;97634.40;;;21.30
68027;BMP180;54819;48.030;14.710;2023-05-07T11:37:00;97634.60;;;21.34
68027;BMP180;54819;48.030;14.710;2023-05-07T11:39:41;97635.80;;;21.40
68027;BMP180;54819;48.030;14.710;2023-05-07T11:42:29;97636.20;;;21.40
68027;BMP180;54819;48.030;14.710;2023-05-07T11:44:57;97635.40;;;21.58
68027;BMP180;54819;48.030;14.710;2023-05-07T11:47:24;97635.20;;;21.70
68027;BMP180;54819;48.030;14.710;2023-05-07T11:49:54;97635.60;;;21.78
68027;BMP180;54819;48.030;14.710;2023-05-07T11:52:23;97634.40;;;21.80
68027;BMP180;54819;48.030;14.710;2023-05-07T11:54:56;97641.20;;;21.80
68027;BMP180;54819;48.030;14.710;2023-05-07T11:57:24;97643.40;;;21.90
68027;BMP180;54819;48.030;14.710;2023-05-07T11:59:59;97641.80;;;21.84
68027;BMP180;54819;48.030;14.710;2023-05-07T12:02:26;97644.40;;;21.80
68027;BMP180;54819;48.030;14.710;2023-05-07T12:04:53;97640.40;;;21.76
68027;BMP180;54819;48.030;14.710;2023-05-07T12:07:21;97637.80;;;21.80
68027;BMP180;54819;48.030;14.710;2023-05-07T12:09:48;97633.00;;;21.80
68027;BMP180;54819;48.030;14.710;2023-05-07T12:12:14;97627.40;;;21.80
68027;BMP180;54819;48.030;14.710;2023-05-07T12:14:45;97635.00;;;21.88
68027;BMP180;54819;48.030;14.710;2023-05-07T12:17:14;97638.40;;;21.88
68027;BMP180;54819;48.030;14.710;2023-05-07T12:19:44;97633.40;;;21.90
68027;BMP180;54819;48.030;14.710;2023-05-07T12:22:12;97632.00;;;22.00
68027;BMP180;54819;48.030;14.710;2023-05-07T12:25:08;97635.40;;;22.08
68027;BMP180;54819;48.030;14.710;2023-05-07T12:27:37;97626.80;;;22.10
68027;BMP180;54819;48.030;14.710;2023-05-07T12:30:06;97630.60;;;22.10
68027;BMP180;54819;48.030;14.710;2023-05-07T12:32:36;97634.20;;;22.12
68027;BMP180;54819;48.030;14.710;2023-05-07T12:35:05;97631.20;;;22.20
68027;BMP180;54819;48.030;14.710;2023-05-07T12:37:32;97627.40;;;22.20
68027;BMP180;54819;48.030;14.710;2023-05-07T12:40:08;97624.80;;;22.20
68027;BMP180;54819;48.030;14.710;2023-05-07T12:42:37;97620.20;;;22.30
68027;BMP180;54819;48.030;14.710;2023-05-07T12:45:11;97621.80;;;22.30
68027;BMP180;54819;48.030;14.710;2023-05-07T12:47:39;97619.00;;;22.22
68027;BMP180;54819;48.030;14.710;2023-05-07T12:50:07;97619.20;;;22.30
68027;BMP180;54819;48.030;14.710;2023-05-07T12:52:34;97619.20;;;22.24
68027;BMP180;54819;48.030;14.710;2023-05-07T12:55:08;97617.00;;;22.26
68027;BMP180;54819;48.030;14.710;2023-05-07T12:57:45;97610.80;;;22.30
68027;BMP180;54819;48.030;14.710;2023-05-07T13:00:13;97610.00;;;22.30
68027;BMP180;54819;48.030;14.710;2023-05-07T13:02:42;97611.80;;;22.30
68027;BMP180;54819;48.030;14.710;2023-05-07T13:05:11;97608.40;;;22.30
68027;BMP180;54819;48.030;14.710;2023-05-07T13:07:39;97609.00;;;22.30
68027;BMP180;54819;48.030;14.710;2023-05-07T13:10:08;97610.20;;;22.20
68027;BMP180;54819;48.030;14.710;2023-05-07T13:12:35;97606.60;;;22.10
68027;BMP180;54819;48.030;14.710;2023-05-07T13:15:02;97606.80;;;22.10
68027;BMP180;54819;48.030;14.710;2023-05-07T13:17:29;97607.60;;;22.10
68027;BMP180;54819;48.030;14.710;2023-05-07T13:19:58;97609.80;;;22.20
68027;BMP180;54819;48.030;14.710;2023-05-07T13:22:24;97605.60;;;22.20
68027;BMP180;54819;48.030;14.710;2023-05-07T13:24:51;97606.80;;;22.10
68027;BMP180;54819;48.030;14.710;2023-05-07T13:27:17;97599.80;;;22.20
68027;BMP180;54819;48.030;14.710;2023-05-07T13:29:45;97600.60;;;22.10
68027;BMP180;54819;48.030;14.710;2023-05-07T13:32:12;97599.40;;;22.10
68027;BMP180;54819;48.030;14.710;2023-05-07T13:34:39;97600.00;;;22.10
68027;BMP180;54819;48.030;14.710;2023-05-07T13:37:06;97600.80;;;22.10
68027;BMP180;54819;48.030;14.710;2023-05-07T13:39:37;97601.60;;;22.10
68027;BMP180;54819;48.030;14.710;2023-05-07T13:42:03;97596.60;;;22.00
68027;BMP180;54819;48.030;14.710;2023-05-07T13:44:30;97596.80;;;22.00
68027;BMP180;54819;48.030;14.710;2023-05-07T13:46:57;97605.40;;;22.08
68027;BMP180;54819;48.030;14.710;2023-05-07T13:49:23;97604.20;;;22.10
68027;BMP180;54819;48.030;14.710;2023-05-07T13:51:50;97603.80;;;22.10
68027;BMP180;54819;48.030;14.710;2023-05-07T13:54:17;97607.00;;;22.10
68027;BMP180;54819;48.030;14.710;2023-05-07T13:56:43;97605.80;;;22.00
68027;BMP180;54819;48.030;14.710;2023-05-07T13:59:10;97601.20;;;22.00
68027;BMP180;54819;48.030;14.710;2023-05-07T14:01:37;97603.40;;;22.00
68027;BMP180;54819;48.030;14.710;2023-05-07T14:04:04;97606.40;;;22.00
68027;BMP180;54819;48.030;14.710;2023-05-07T14:06:30;97603.40;;;21.90
68027;BMP180;54819;48.030;14.710;2023-05-07T14:08:57;97602.80;;;21.80
68027;BMP180;54819;48.030;14.710;2023-05-07T14:11:24;97590.00;;;21.80
68027;BMP180;54819;48.030;14.710;2023-05-07T14:13:51;97599.40;;;21.70
68027;BMP180;54819;48.030;14.710;2023-05-07T14:16:18;97597.80;;;21.70